sensor_id;sensor_type;location;lat;lon;timestamp;P1;durP1;ratioP1;P2;durP2;ratioP2
74577;SDS011;63173;49.086;33.418;2023-05-19T00:01:10;21.08;;;9.95;;
74577;SDS011;63173;49.086;33.418;2023-05-19T00:03:51;24.02;;;9.40;;
74577;SDS011;63173;49.086;33.418;2023-05-19T00:06:22;18.95;;;9.27;;
74577;SDS011;63173;49.086;33.418;2023-05-19T00:09:01;21.48;;;9.60;;
74577;SDS011;63173;49.086;33.418;2023-05-19T00:11:28;15.43;;;8.93;;
74577;SDS011;63173;49.086;33.418;2023-05-19T00:13:55;17.05;;;8.70;;
74577;SDS011;63173;49.086;33.418;2023-05-19T00:16:23;16.08;;;9.07;;
74577;SDS011;63173;49.086;33.418;2023-05-19T00:18:49;18.85;;;8.63;;
74577;SDS011;63173;49.086;33.418;2023-05-19T00:21:15;13.63;;;7.88;;
74577;SDS011;63173;49.086;33.418;2023-05-19T00:23:41;15.40;;;8.15;;
74577;SDS011;63173;49.086;33.418;2023-05-19T00:26:07;14.27;;;8.00;;
74577;SDS011;63173;49.086;33.418;2023-05-19T00:28:32;16.80;;;8.10;;
74577;SDS011;63173;49.086;33.418;2023-05-19T00:30:58;13.00;;;7.90;;
74577;SDS011;63173;49.086;33.418;2023-05-19T00:33:23;16.98;;;8.73;;
74577;SDS011;63173;49.086;33.418;2023-05-19T00:35:49;16.38;;;9.30;;
74577;SDS011;63173;49.086;33.418;2023-05-19T00:38:14;19.52;;;9.32;;
74577;SDS011;63173;49.086;33.418;2023-05-19T00:40:40;16.35;;;8.25;;
74577;SDS011;63173;49.086;33.418;2023-05-19T00:43:05;18.92;;;8.85;;
74577;SDS011;63173;49.086;33.418;2023-05-19T00:45:32;14.23;;;8.73;;
74577;SDS011;63173;49.086;33.418;2023-05-19T00:47:58;17.02;;;9.18;;
74577;SDS011;63173;49.086;33.418;2023-05-19T00:50:24;24.10;;;9.75;;
74577;SDS011;63173;49.086;33.418;2023-05-19T00:52:51;29.48;;;10.18;;
74577;SDS011;63173;49.086;33.418;2023-05-19T00:55:17;20.33;;;9.70;;
74577;SDS011;63173;49.086;33.418;2023-05-19T00:57:44;27.30;;;10.68;;
74577;SDS011;63173;49.086;33.418;2023-05-19T01:00:11;21.50;;;10.60;;
74577;SDS011;63173;49.086;33.418;2023-05-19T01:02:39;18.13;;;10.48;;
74577;SDS011;63173;49.086;33.418;2023-05-19T01:05:05;27.52;;;10.45;;
74577;SDS011;63173;49.086;33.418;2023-05-19T01:07:31;18.73;;;9.90;;
74577;SDS011;63173;49.086;33.418;2023-05-19T01:09:57;20.25;;;10.23;;
74577;SDS011;63173;49.086;33.418;2023-05-19T01:12:23;31.00;;;10.25;;
74577;SDS011;63173;49.086;33.418;2023-05-19T01:14:48;37.95;;;9.88;;
74577;SDS011;63173;49.086;33.418;2023-05-19T01:20:23;25.33;;;10.35;;
74577;SDS011;63173;49.086;33.418;2023-05-19T01:23:02;17.45;;;9.63;;
74577;SDS011;63173;49.086;33.418;2023-05-19T01:31:12;23.05;;;10.50;;
74577;SDS011;63173;49.086;33.418;2023-05-19T01:33:40;18.45;;;10.18;;
74577;SDS011;63173;49.086;33.418;2023-05-19T01:36:07;20.10;;;9.85;;
74577;SDS011;63173;49.086;33.418;2023-05-19T01:38:37;22.58;;;11.07;;
74577;SDS011;63173;49.086;33.418;2023-05-19T01:41:03;24.20;;;11.18;;
74577;SDS011;63173;49.086;33.418;2023-05-19T01:43:30;26.30;;;10.43;;
74577;SDS011;63173;49.086;33.418;2023-05-19T01:45:57;22.02;;;11.65;;
74577;SDS011;63173;49.086;33.418;2023-05-19T01:48:23;21.05;;;11.15;;
74577;SDS011;63173;49.086;33.418;2023-05-19T01:50:50;25.92;;;11.15;;
74577;SDS011;63173;49.086;33.418;2023-05-19T01:53:16;22.08;;;11.20;;
74577;SDS011;63173;49.086;33.418;2023-05-19T01:55:43;20.10;;;11.20;;
74577;SDS011;63173;49.086;33.418;2023-05-19T02:01:05;21.08;;;11.50;;
74577;SDS011;63173;49.086;33.418;2023-05-19T02:06:40;20.10;;;11.35;;
74577;SDS011;63173;49.086;33.418;2023-05-19T02:12:35;21.15;;;10.65;;
74577;SDS011;63173;49.086;33.418;2023-05-19T02:15:05;19.55;;;10.05;;
74577;SDS011;63173;49.086;33.418;2023-05-19T02:17:35;16.55;;;9.88;;
74577;SDS011;63173;49.086;33.418;2023-05-19T02:20:06;19.70;;;10.52;;
74577;SDS011;63173;49.086;33.418;2023-05-19T02:22:33;27.60;;;10.43;;
74577;SDS011;63173;49.086;33.418;2023-05-19T02:24:58;29.83;;;10.57;;
74577;SDS011;63173;49.086;33.418;2023-05-19T02:27:24;20.23;;;9.90;;
74577;SDS011;63173;49.086;33.418;2023-05-19T02:29:50;18.58;;;10.52;;
74577;SDS011;63173;49.086;33.418;2023-05-19T02:32:16;17.88;;;9.45;;
74577;SDS011;63173;49.086;33.418;2023-05-19T02:34:41;17.08;;;10.30;;
74577;SDS011;63173;49.086;33.418;2023-05-19T02:37:09;17.63;;;10.02;;
74577;SDS011;63173;49.086;33.418;2023-05-19T02:39:41;20.25;;;11.30;;
74577;SDS011;63173;49.086;33.418;2023-05-19T02:42:07;21.40;;;10.73;;
74577;SDS011;63173;49.086;33.418;2023-05-19T02:44:32;17.90;;;10.73;;
74577;SDS011;63173;49.086;33.418;2023-05-19T02:46:58;27.10;;;11.93;;
74577;SDS011;63173;49.086;33.418;2023-05-19T02:49:23;21.67;;;10.52;;
74577;SDS011;63173;49.086;33.418;2023-05-19T02:51:48;19.27;;;9.60;;
74577;SDS011;63173;49.086;33.418;2023-05-19T02:54:14;17.88;;;10.07;;
74577;SDS011;63173;49.086;33.418;2023-05-19T02:56:40;17.00;;;9.60;;
74577;SDS011;63173;49.086;33.418;2023-05-19T02:59:05;16.58;;;8.75;;
74577;SDS011;63173;49.086;33.418;2023-05-19T03:01:30;16.45;;;9.23;;
74577;SDS011;63173;49.086;33.418;2023-05-19T03:04:01;18.95;;;9.38;;
74577;SDS011;63173;49.086;33.418;2023-05-19T03:06:27;19.02;;;10.27;;
74577;SDS011;63173;49.086;33.418;2023-05-19T03:08:53;22.23;;;10.25;;
74577;SDS011;63173;49.086;33.418;2023-05-19T03:11:18;18.00;;;9.70;;
74577;SDS011;63173;49.086;33.418;2023-05-19T03:13:44;20.38;;;9.63;;
74577;SDS011;63173;49.086;33.418;2023-05-19T03:16:10;18.52;;;10.07;;
74577;SDS011;63173;49.086;33.418;2023-05-19T03:18:36;18.80;;;10.07;;
74577;SDS011;63173;49.086;33.418;2023-05-19T03:21:02;24.83;;;9.80;;
74577;SDS011;63173;49.086;33.418;2023-05-19T03:23:27;17.63;;;9.70;;
74577;SDS011;63173;49.086;33.418;2023-05-19T03:25:53;21.42;;;11.10;;
74577;SDS011;63173;49.086;33.418;2023-05-19T03:28:20;19.55;;;11.20;;
74577;SDS011;63173;49.086;33.418;2023-05-19T03:30:47;23.02;;;10.65;;
74577;SDS011;63173;49.086;33.418;2023-05-19T03:33:14;15.60;;;9.18;;
74577;SDS011;63173;49.086;33.418;2023-05-19T03:35:40;17.73;;;9.27;;
74577;SDS011;63173;49.086;33.418;2023-05-19T03:38:05;20.52;;;10.05;;
74577;SDS011;63173;49.086;33.418;2023-05-19T03:40:31;16.75;;;9.30;;
74577;SDS011;63173;49.086;33.418;2023-05-19T03:42:56;18.65;;;8.20;;
74577;SDS011;63173;49.086;33.418;2023-05-19T03:45:22;15.32;;;8.85;;
74577;SDS011;63173;49.086;33.418;2023-05-19T03:47:47;15.57;;;8.70;;
74577;SDS011;63173;49.086;33.418;2023-05-19T03:50:12;20.80;;;8.32;;
74577;SDS011;63173;49.086;33.418;2023-05-19T03:52:38;15.48;;;8.02;;
74577;SDS011;63173;49.086;33.418;2023-05-19T03:55:04;18.45;;;8.05;;
74577;SDS011;63173;49.086;33.418;2023-05-19T03:57:31;17.27;;;8.48;;
74577;SDS011;63173;49.086;33.418;2023-05-19T03:59:57;20.90;;;7.80;;
74577;SDS011;63173;49.086;33.418;2023-05-19T04:02:23;12.48;;;7.18;;
74577;SDS011;63173;49.086;33.418;2023-05-19T04:04:48;14.43;;;7.88;;
74577;SDS011;63173;49.086;33.418;2023-05-19T04:07:15;17.10;;;7.57;;
74577;SDS011;63173;49.086;33.418;2023-05-19T04:09:40;16.98;;;7.90;;
74577;SDS011;63173;49.086;33.418;2023-05-19T04:12:06;17.30;;;7.10;;
74577;SDS011;63173;49.086;33.418;2023-05-19T04:14:31;12.35;;;7.13;;
74577;SDS011;63173;49.086;33.418;2023-05-19T04:16:57;13.52;;;8.00;;
74577;SDS011;63173;49.086;33.418;2023-05-19T04:19:22;16.23;;;7.57;;
74577;SDS011;63173;49.086;33.418;2023-05-19T04:21:48;15.50;;;8.15;;
74577;SDS011;63173;49.086;33.418;2023-05-19T04:24:13;15.68;;;7.28;;
74577;SDS011;63173;49.086;33.418;2023-05-19T04:26:38;16.08;;;7.82;;
74577;SDS011;63173;49.086;33.418;2023-05-19T04:29:09;17.17;;;6.85;;
74577;SDS011;63173;49.086;33.418;2023-05-19T04:31:35;18.00;;;7.65;;
74577;SDS011;63173;49.086;33.418;2023-05-19T04:34:00;18.40;;;7.78;;
74577;SDS011;63173;49.086;33.418;2023-05-19T04:36:25;20.30;;;7.32;;
74577;SDS011;63173;49.086;33.418;2023-05-19T04:38:51;21.38;;;7.18;;
74577;SDS011;63173;49.086;33.418;2023-05-19T04:41:19;25.85;;;7.68;;
74577;SDS011;63173;49.086;33.418;2023-05-19T04:43:45;15.93;;;7.05;;
74577;SDS011;63173;49.086;33.418;2023-05-19T04:46:12;18.20;;;6.90;;
74577;SDS011;63173;49.086;33.418;2023-05-19T04:48:38;21.33;;;6.95;;
74577;SDS011;63173;49.086;33.418;2023-05-19T04:51:05;12.43;;;6.60;;
74577;SDS011;63173;49.086;33.418;2023-05-19T04:53:31;18.05;;;6.90;;
74577;SDS011;63173;49.086;33.418;2023-05-19T04:55:57;16.83;;;6.75;;
74577;SDS011;63173;49.086;33.418;2023-05-19T04:58:23;13.95;;;6.90;;
74577;SDS011;63173;49.086;33.418;2023-05-19T05:00:51;12.38;;;7.03;;
74577;SDS011;63173;49.086;33.418;2023-05-19T05:03:20;17.00;;;7.35;;
74577;SDS011;63173;49.086;33.418;2023-05-19T05:05:48;16.80;;;7.68;;
74577;SDS011;63173;49.086;33.418;2023-05-19T05:08:14;13.10;;;6.75;;
74577;SDS011;63173;49.086;33.418;2023-05-19T05:10:45;13.70;;;6.00;;
74577;SDS011;63173;49.086;33.418;2023-05-19T05:13:11;17.40;;;6.43;;
74577;SDS011;63173;49.086;33.418;2023-05-19T05:15:37;20.48;;;6.03;;
74577;SDS011;63173;49.086;33.418;2023-05-19T05:18:02;11.45;;;6.10;;
74577;SDS011;63173;49.086;33.418;2023-05-19T05:20:29;14.05;;;5.93;;
74577;SDS011;63173;49.086;33.418;2023-05-19T05:22:55;11.63;;;6.10;;
74577;SDS011;63173;49.086;33.418;2023-05-19T05:25:21;14.55;;;5.88;;
74577;SDS011;63173;49.086;33.418;2023-05-19T05:27:47;13.02;;;5.35;;
74577;SDS011;63173;49.086;33.418;2023-05-19T05:30:12;11.27;;;5.78;;
74577;SDS011;63173;49.086;33.418;2023-05-19T05:32:38;12.63;;;5.25;;
74577;SDS011;63173;49.086;33.418;2023-05-19T05:35:04;13.38;;;5.95;;
74577;SDS011;63173;49.086;33.418;2023-05-19T05:37:29;12.90;;;6.13;;
74577;SDS011;63173;49.086;33.418;2023-05-19T05:39:55;10.85;;;5.47;;
74577;SDS011;63173;49.086;33.418;2023-05-19T05:42:20;12.80;;;4.85;;
74577;SDS011;63173;49.086;33.418;2023-05-19T05:44:46;11.20;;;5.55;;
74577;SDS011;63173;49.086;33.418;2023-05-19T05:47:11;17.30;;;9.43;;
74577;SDS011;63173;49.086;33.418;2023-05-19T05:49:37;24.65;;;11.75;;
74577;SDS011;63173;49.086;33.418;2023-05-19T05:52:04;10.52;;;5.97;;
74577;SDS011;63173;49.086;33.418;2023-05-19T05:54:32;11.85;;;5.38;;
74577;SDS011;63173;49.086;33.418;2023-05-19T05:56:57;14.80;;;5.38;;
74577;SDS011;63173;49.086;33.418;2023-05-19T05:59:23;15.25;;;5.43;;
74577;SDS011;63173;49.086;33.418;2023-05-19T06:01:49;11.43;;;4.93;;
74577;SDS011;63173;49.086;33.418;2023-05-19T06:04:14;16.23;;;4.85;;
74577;SDS011;63173;49.086;33.418;2023-05-19T06:06:40;10.30;;;4.80;;
74577;SDS011;63173;49.086;33.418;2023-05-19T06:09:05;8.55;;;5.03;;
74577;SDS011;63173;49.086;33.418;2023-05-19T06:11:31;15.00;;;4.75;;
74577;SDS011;63173;49.086;33.418;2023-05-19T06:13:56;14.50;;;5.03;;
74577;SDS011;63173;49.086;33.418;2023-05-19T06:16:22;10.07;;;4.80;;
74577;SDS011;63173;49.086;33.418;2023-05-19T06:18:47;11.90;;;4.55;;
74577;SDS011;63173;49.086;33.418;2023-05-19T06:21:13;10.10;;;4.75;;
74577;SDS011;63173;49.086;33.418;2023-05-19T06:23:39;8.90;;;4.85;;
74577;SDS011;63173;49.086;33.418;2023-05-19T06:26:04;10.25;;;4.20;;
74577;SDS011;63173;49.086;33.418;2023-05-19T06:28:31;8.57;;;4.57;;
74577;SDS011;63173;49.086;33.418;2023-05-19T06:30:57;13.10;;;4.60;;
74577;SDS011;63173;49.086;33.418;2023-05-19T06:33:22;14.60;;;5.07;;
74577;SDS011;63173;49.086;33.418;2023-05-19T06:35:48;11.93;;;4.20;;
74577;SDS011;63173;49.086;33.418;2023-05-19T06:38:13;10.02;;;4.32;;
74577;SDS011;63173;49.086;33.418;2023-05-19T06:40:39;8.90;;;4.40;;
74577;SDS011;63173;49.086;33.418;2023-05-19T06:43:04;8.65;;;4.18;;
74577;SDS011;63173;49.086;33.418;2023-05-19T06:45:30;7.95;;;4.10;;
74577;SDS011;63173;49.086;33.418;2023-05-19T06:47:56;12.00;;;4.25;;
74577;SDS011;63173;49.086;33.418;2023-05-19T06:50:22;6.85;;;3.90;;
74577;SDS011;63173;49.086;33.418;2023-05-19T06:52:48;12.90;;;4.35;;
74577;SDS011;63173;49.086;33.418;2023-05-19T06:55:14;7.97;;;3.75;;
74577;SDS011;63173;49.086;33.418;2023-05-19T06:57:39;9.23;;;3.08;;
74577;SDS011;63173;49.086;33.418;2023-05-19T07:00:05;14.90;;;4.10;;
74577;SDS011;63173;49.086;33.418;2023-05-19T07:02:34;9.57;;;3.50;;
74577;SDS011;63173;49.086;33.418;2023-05-19T07:04:59;6.55;;;3.25;;
74577;SDS011;63173;49.086;33.418;2023-05-19T07:07:25;10.32;;;3.33;;
74577;SDS011;63173;49.086;33.418;2023-05-19T07:09:50;18.88;;;3.47;;
74577;SDS011;63173;49.086;33.418;2023-05-19T07:12:16;11.40;;;3.35;;
74577;SDS011;63173;49.086;33.418;2023-05-19T07:14:41;7.38;;;3.15;;
74577;SDS011;63173;49.086;33.418;2023-05-19T07:17:06;7.50;;;2.92;;
74577;SDS011;63173;49.086;33.418;2023-05-19T07:19:32;8.63;;;2.58;;
74577;SDS011;63173;49.086;33.418;2023-05-19T07:21:57;4.78;;;2.45;;
74577;SDS011;63173;49.086;33.418;2023-05-19T07:24:23;13.43;;;2.70;;
74577;SDS011;63173;49.086;33.418;2023-05-19T07:26:49;5.53;;;2.13;;
74577;SDS011;63173;49.086;33.418;2023-05-19T07:29:14;4.93;;;2.50;;
74577;SDS011;63173;49.086;33.418;2023-05-19T07:31:40;7.45;;;2.90;;
74577;SDS011;63173;49.086;33.418;2023-05-19T07:34:05;7.32;;;2.90;;
74577;SDS011;63173;49.086;33.418;2023-05-19T07:36:31;9.75;;;2.40;;
74577;SDS011;63173;49.086;33.418;2023-05-19T07:38:56;8.18;;;2.65;;
74577;SDS011;63173;49.086;33.418;2023-05-19T07:41:21;6.25;;;2.50;;
74577;SDS011;63173;49.086;33.418;2023-05-19T07:43:47;9.10;;;2.38;;
74577;SDS011;63173;49.086;33.418;2023-05-19T07:46:13;7.30;;;2.30;;
74577;SDS011;63173;49.086;33.418;2023-05-19T07:48:39;6.20;;;2.58;;
74577;SDS011;63173;49.086;33.418;2023-05-19T07:51:04;7.35;;;2.50;;
74577;SDS011;63173;49.086;33.418;2023-05-19T07:53:33;5.30;;;2.55;;
74577;SDS011;63173;49.086;33.418;2023-05-19T07:55:59;15.70;;;2.63;;
74577;SDS011;63173;49.086;33.418;2023-05-19T07:58:25;9.98;;;2.63;;
74577;SDS011;63173;49.086;33.418;2023-05-19T08:00:50;8.45;;;2.40;;
74577;SDS011;63173;49.086;33.418;2023-05-19T08:03:17;9.95;;;2.42;;
74577;SDS011;63173;49.086;33.418;2023-05-19T08:05:42;9.77;;;2.40;;
74577;SDS011;63173;49.086;33.418;2023-05-19T08:08:08;5.40;;;2.30;;
74577;SDS011;63173;49.086;33.418;2023-05-19T08:10:33;4.28;;;2.38;;
74577;SDS011;63173;49.086;33.418;2023-05-19T08:12:59;9.02;;;2.40;;
74577;SDS011;63173;49.086;33.418;2023-05-19T08:15:24;8.00;;;2.40;;
74577;SDS011;63173;49.086;33.418;2023-05-19T08:17:50;8.55;;;2.55;;
74577;SDS011;63173;49.086;33.418;2023-05-19T08:20:15;5.28;;;2.33;;
74577;SDS011;63173;49.086;33.418;2023-05-19T08:22:41;10.02;;;2.92;;
74577;SDS011;63173;49.086;33.418;2023-05-19T08:25:06;11.00;;;3.83;;
74577;SDS011;63173;49.086;33.418;2023-05-19T08:27:33;12.73;;;3.20;;
74577;SDS011;63173;49.086;33.418;2023-05-19T08:29:58;7.13;;;2.58;;
74577;SDS011;63173;49.086;33.418;2023-05-19T08:32:24;7.32;;;2.70;;
74577;SDS011;63173;49.086;33.418;2023-05-19T08:34:49;9.95;;;2.78;;
74577;SDS011;63173;49.086;33.418;2023-05-19T08:37:15;17.05;;;2.80;;
74577;SDS011;63173;49.086;33.418;2023-05-19T08:39:40;6.90;;;2.60;;
74577;SDS011;63173;49.086;33.418;2023-05-19T08:42:06;12.00;;;2.70;;
74577;SDS011;63173;49.086;33.418;2023-05-19T08:44:33;8.93;;;2.45;;
74577;SDS011;63173;49.086;33.418;2023-05-19T08:47:00;10.10;;;2.70;;
74577;SDS011;63173;49.086;33.418;2023-05-19T08:49:29;10.40;;;2.75;;
74577;SDS011;63173;49.086;33.418;2023-05-19T08:55:14;11.50;;;3.67;;
74577;SDS011;63173;49.086;33.418;2023-05-19T08:57:46;8.25;;;2.55;;
74577;SDS011;63173;49.086;33.418;2023-05-19T09:00:13;12.73;;;2.97;;
74577;SDS011;63173;49.086;33.418;2023-05-19T09:05:06;5.93;;;1.85;;
74577;SDS011;63173;49.086;33.418;2023-05-19T09:07:34;5.10;;;2.40;;
74577;SDS011;63173;49.086;33.418;2023-05-19T09:10:01;8.00;;;2.30;;
74577;SDS011;63173;49.086;33.418;2023-05-19T09:12:27;5.57;;;2.05;;
74577;SDS011;63173;49.086;33.418;2023-05-19T09:14:53;5.60;;;2.15;;
74577;SDS011;63173;49.086;33.418;2023-05-19T09:17:19;15.15;;;2.42;;
74577;SDS011;63173;49.086;33.418;2023-05-19T09:19:45;8.98;;;2.28;;
74577;SDS011;63173;49.086;33.418;2023-05-19T09:22:14;8.73;;;2.63;;
74577;SDS011;63173;49.086;33.418;2023-05-19T09:24:43;11.32;;;2.00;;
74577;SDS011;63173;49.086;33.418;2023-05-19T09:27:08;10.02;;;2.00;;
74577;SDS011;63173;49.086;33.418;2023-05-19T09:29:35;4.07;;;2.10;;
74577;SDS011;63173;49.086;33.418;2023-05-19T09:32:00;4.15;;;1.77;;
74577;SDS011;63173;49.086;33.418;2023-05-19T09:34:29;19.83;;;2.80;;
74577;SDS011;63173;49.086;33.418;2023-05-19T09:36:55;8.02;;;2.30;;
74577;SDS011;63173;49.086;33.418;2023-05-19T09:39:22;7.13;;;2.03;;
74577;SDS011;63173;49.086;33.418;2023-05-19T09:41:52;13.05;;;2.10;;
74577;SDS011;63173;49.086;33.418;2023-05-19T09:44:22;5.63;;;2.33;;
74577;SDS011;63173;49.086;33.418;2023-05-19T09:46:48;6.78;;;2.70;;
74577;SDS011;63173;49.086;33.418;2023-05-19T09:49:26;13.55;;;2.92;;
74577;SDS011;63173;49.086;33.418;2023-05-19T09:52:02;7.93;;;2.65;;
74577;SDS011;63173;49.086;33.418;2023-05-19T09:54:28;15.82;;;9.40;;
74577;SDS011;63173;49.086;33.418;2023-05-19T09:59:25;9.55;;;3.03;;
74577;SDS011;63173;49.086;33.418;2023-05-19T10:01:54;10.43;;;2.72;;
74577;SDS011;63173;49.086;33.418;2023-05-19T10:04:24;8.50;;;2.10;;
74577;SDS011;63173;49.086;33.418;2023-05-19T10:06:51;4.82;;;2.13;;
74577;SDS011;63173;49.086;33.418;2023-05-19T10:09:21;7.55;;;2.70;;
74577;SDS011;63173;49.086;33.418;2023-05-19T10:11:50;9.60;;;2.40;;
74577;SDS011;63173;49.086;33.418;2023-05-19T10:14:18;5.38;;;2.13;;
74577;SDS011;63173;49.086;33.418;2023-05-19T10:16:49;12.80;;;2.72;;
74577;SDS011;63173;49.086;33.418;2023-05-19T10:19:16;9.77;;;2.70;;
74577;SDS011;63173;49.086;33.418;2023-05-19T10:21:45;12.80;;;3.97;;
74577;SDS011;63173;49.086;33.418;2023-05-19T10:24:11;8.30;;;2.42;;
74577;SDS011;63173;49.086;33.418;2023-05-19T10:26:36;11.32;;;3.08;;
74577;SDS011;63173;49.086;33.418;2023-05-19T10:29:05;9.80;;;2.75;;
74577;SDS011;63173;49.086;33.418;2023-05-19T10:31:31;10.57;;;3.03;;
74577;SDS011;63173;49.086;33.418;2023-05-19T10:34:00;4.50;;;2.30;;
74577;SDS011;63173;49.086;33.418;2023-05-19T10:36:41;8.05;;;2.33;;
74577;SDS011;63173;49.086;33.418;2023-05-19T10:39:15;9.48;;;2.22;;
74577;SDS011;63173;49.086;33.418;2023-05-19T10:47:24;8.75;;;2.65;;
74577;SDS011;63173;49.086;33.418;2023-05-19T10:49:53;5.70;;;2.20;;
74577;SDS011;63173;49.086;33.418;2023-05-19T10:52:20;9.77;;;2.28;;
74577;SDS011;63173;49.086;33.418;2023-05-19T10:54:47;10.23;;;2.20;;
74577;SDS011;63173;49.086;33.418;2023-05-19T10:57:16;8.85;;;2.38;;
74577;SDS011;63173;49.086;33.418;2023-05-19T10:59:42;3.53;;;1.95;;
74577;SDS011;63173;49.086;33.418;2023-05-19T11:02:08;19.75;;;2.55;;
74577;SDS011;63173;49.086;33.418;2023-05-19T11:04:38;10.20;;;2.47;;
74577;SDS011;63173;49.086;33.418;2023-05-19T11:07:04;5.60;;;1.88;;
74577;SDS011;63173;49.086;33.418;2023-05-19T11:09:29;7.97;;;1.90;;
74577;SDS011;63173;49.086;33.418;2023-05-19T11:12:00;9.77;;;2.22;;
74577;SDS011;63173;49.086;33.418;2023-05-19T11:14:29;16.45;;;2.65;;
74577;SDS011;63173;49.086;33.418;2023-05-19T11:16:57;10.48;;;2.30;;
74577;SDS011;63173;49.086;33.418;2023-05-19T11:19:26;10.13;;;2.42;;
74577;SDS011;63173;49.086;33.418;2023-05-19T11:21:56;18.48;;;2.80;;
74577;SDS011;63173;49.086;33.418;2023-05-19T11:24:34;8.80;;;2.15;;
74577;SDS011;63173;49.086;33.418;2023-05-19T11:27:27;7.07;;;2.63;;
74577;SDS011;63173;49.086;33.418;2023-05-19T11:30:16;13.00;;;2.35;;
74577;SDS011;63173;49.086;33.418;2023-05-19T11:32:44;7.68;;;2.08;;
74577;SDS011;63173;49.086;33.418;2023-05-19T11:35:11;14.07;;;2.70;;
74577;SDS011;63173;49.086;33.418;2023-05-19T11:37:38;4.80;;;2.15;;
74577;SDS011;63173;49.086;33.418;2023-05-19T11:40:05;9.85;;;2.33;;
74577;SDS011;63173;49.086;33.418;2023-05-19T11:42:31;9.75;;;2.30;;
74577;SDS011;63173;49.086;33.418;2023-05-19T11:44:58;4.70;;;2.28;;
74577;SDS011;63173;49.086;33.418;2023-05-19T11:47:24;5.80;;;1.95;;
74577;SDS011;63173;49.086;33.418;2023-05-19T11:49:51;8.20;;;2.33;;
74577;SDS011;63173;49.086;33.418;2023-05-19T11:52:21;20.27;;;2.50;;
74577;SDS011;63173;49.086;33.418;2023-05-19T11:54:49;17.00;;;3.33;;
74577;SDS011;63173;49.086;33.418;2023-05-19T11:57:15;12.07;;;3.38;;
74577;SDS011;63173;49.086;33.418;2023-05-19T11:59:40;9.18;;;2.83;;
74577;SDS011;63173;49.086;33.418;2023-05-19T12:02:24;14.52;;;3.30;;
74577;SDS011;63173;49.086;33.418;2023-05-19T12:04:51;9.23;;;2.40;;
74577;SDS011;63173;49.086;33.418;2023-05-19T12:07:18;10.05;;;2.65;;
74577;SDS011;63173;49.086;33.418;2023-05-19T12:09:47;8.18;;;2.75;;
74577;SDS011;63173;49.086;33.418;2023-05-19T12:12:14;12.27;;;2.97;;
74577;SDS011;63173;49.086;33.418;2023-05-19T12:14:41;8.45;;;2.63;;
74577;SDS011;63173;49.086;33.418;2023-05-19T12:17:17;8.25;;;4.55;;
74577;SDS011;63173;49.086;33.418;2023-05-19T12:19:44;5.30;;;2.63;;
74577;SDS011;63173;49.086;33.418;2023-05-19T12:22:10;4.38;;;2.58;;
74577;SDS011;63173;49.086;33.418;2023-05-19T12:24:37;5.78;;;2.63;;
74577;SDS011;63173;49.086;33.418;2023-05-19T12:27:10;3.60;;;2.10;;
74577;SDS011;63173;49.086;33.418;2023-05-19T12:29:53;7.30;;;2.63;;
74577;SDS011;63173;49.086;33.418;2023-05-19T12:32:24;9.85;;;2.63;;
74577;SDS011;63173;49.086;33.418;2023-05-19T12:34:51;10.13;;;2.95;;
74577;SDS011;63173;49.086;33.418;2023-05-19T12:37:17;7.38;;;2.40;;
74577;SDS011;63173;49.086;33.418;2023-05-19T12:39:43;5.45;;;2.50;;
74577;SDS011;63173;49.086;33.418;2023-05-19T12:42:10;8.77;;;2.90;;
74577;SDS011;63173;49.086;33.418;2023-05-19T12:44:48;11.63;;;2.30;;
74577;SDS011;63173;49.086;33.418;2023-05-19T12:47:17;8.68;;;2.45;;
74577;SDS011;63173;49.086;33.418;2023-05-19T12:49:53;5.40;;;2.60;;
74577;SDS011;63173;49.086;33.418;2023-05-19T12:52:22;7.82;;;2.10;;
74577;SDS011;63173;49.086;33.418;2023-05-19T12:54:48;8.38;;;2.40;;
74577;SDS011;63173;49.086;33.418;2023-05-19T12:57:18;14.40;;;2.45;;
74577;SDS011;63173;49.086;33.418;2023-05-19T12:59:44;7.05;;;2.20;;
74577;SDS011;63173;49.086;33.418;2023-05-19T13:02:11;4.55;;;2.05;;
74577;SDS011;63173;49.086;33.418;2023-05-19T13:04:36;6.22;;;2.05;;
74577;SDS011;63173;49.086;33.418;2023-05-19T13:07:02;5.20;;;2.30;;
74577;SDS011;63173;49.086;33.418;2023-05-19T13:09:27;9.32;;;2.58;;
74577;SDS011;63173;49.086;33.418;2023-05-19T13:11:52;12.25;;;2.88;;
74577;SDS011;63173;49.086;33.418;2023-05-19T13:14:18;9.40;;;2.75;;
74577;SDS011;63173;49.086;33.418;2023-05-19T13:16:44;8.95;;;2.90;;
74577;SDS011;63173;49.086;33.418;2023-05-19T13:19:14;8.48;;;3.30;;
74577;SDS011;63173;49.086;33.418;2023-05-19T13:21:42;8.57;;;3.40;;
74577;SDS011;63173;49.086;33.418;2023-05-19T13:24:08;5.85;;;2.70;;
74577;SDS011;63173;49.086;33.418;2023-05-19T13:26:33;4.97;;;2.42;;
74577;SDS011;63173;49.086;33.418;2023-05-19T13:28:59;6.65;;;2.67;;
74577;SDS011;63173;49.086;33.418;2023-05-19T13:31:26;4.53;;;2.50;;
74577;SDS011;63173;49.086;33.418;2023-05-19T13:33:52;10.75;;;2.95;;
74577;SDS011;63173;49.086;33.418;2023-05-19T13:36:17;6.30;;;3.13;;
74577;SDS011;63173;49.086;33.418;2023-05-19T13:38:43;6.53;;;3.28;;
74577;SDS011;63173;49.086;33.418;2023-05-19T13:41:08;7.90;;;3.05;;
74577;SDS011;63173;49.086;33.418;2023-05-19T13:43:34;6.15;;;3.60;;
74577;SDS011;63173;49.086;33.418;2023-05-19T13:45:59;11.68;;;4.53;;
74577;SDS011;63173;49.086;33.418;2023-05-19T13:48:24;12.73;;;3.88;;
74577;SDS011;63173;49.086;33.418;2023-05-19T13:50:50;7.80;;;4.60;;
74577;SDS011;63173;49.086;33.418;2023-05-19T13:53:18;9.05;;;4.03;;
74577;SDS011;63173;49.086;33.418;2023-05-19T13:55:43;17.45;;;4.07;;
74577;SDS011;63173;49.086;33.418;2023-05-19T13:58:09;5.93;;;3.88;;
74577;SDS011;63173;49.086;33.418;2023-05-19T14:00:35;7.63;;;4.13;;
74577;SDS011;63173;49.086;33.418;2023-05-19T14:03:00;10.55;;;4.22;;
74577;SDS011;63173;49.086;33.418;2023-05-19T14:05:26;11.50;;;3.85;;
74577;SDS011;63173;49.086;33.418;2023-05-19T14:07:53;8.02;;;4.20;;
74577;SDS011;63173;49.086;33.418;2023-05-19T14:10:19;9.95;;;3.47;;
74577;SDS011;63173;49.086;33.418;2023-05-19T14:12:44;12.63;;;3.65;;
74577;SDS011;63173;49.086;33.418;2023-05-19T14:15:10;9.18;;;3.17;;
74577;SDS011;63173;49.086;33.418;2023-05-19T14:17:36;10.93;;;3.03;;
74577;SDS011;63173;49.086;33.418;2023-05-19T14:20:01;9.23;;;2.83;;
74577;SDS011;63173;49.086;33.418;2023-05-19T14:22:27;6.53;;;2.95;;
74577;SDS011;63173;49.086;33.418;2023-05-19T14:24:52;7.93;;;3.35;;
74577;SDS011;63173;49.086;33.418;2023-05-19T14:27:17;14.05;;;3.50;;
74577;SDS011;63173;49.086;33.418;2023-05-19T14:29:43;10.15;;;3.22;;
74577;SDS011;63173;49.086;33.418;2023-05-19T14:32:08;7.43;;;4.00;;
74577;SDS011;63173;49.086;33.418;2023-05-19T14:34:34;11.65;;;3.92;;
74577;SDS011;63173;49.086;33.418;2023-05-19T14:37:00;7.88;;;4.57;;
74577;SDS011;63173;49.086;33.418;2023-05-19T14:39:26;11.63;;;4.30;;
74577;SDS011;63173;49.086;33.418;2023-05-19T14:41:53;8.13;;;3.88;;
74577;SDS011;63173;49.086;33.418;2023-05-19T14:44:18;5.82;;;3.85;;
74577;SDS011;63173;49.086;33.418;2023-05-19T14:46:44;12.75;;;4.70;;
74577;SDS011;63173;49.086;33.418;2023-05-19T14:49:09;32.05;;;7.18;;
74577;SDS011;63173;49.086;33.418;2023-05-19T14:51:35;29.35;;;8.18;;
74577;SDS011;63173;49.086;33.418;2023-05-19T14:54:01;11.95;;;3.97;;
74577;SDS011;63173;49.086;33.418;2023-05-19T14:56:26;15.45;;;4.82;;